Pagrindinis puslapis
METAR-TAF:

METAR-TAF

Oro uostai :

Talara, Peru

platuma: 04-34S, ilguma: 081-15W, Aukštis: 85 m

Dabartinis oras

Ataskaita buvo paskelbta 46 minutes, ne 16:00 UTC
Vėjas 15 kt iš Pietų/Pietvakarių
Temperatūra 25°C
Drėgmė 47%
Slėgis 1016 hPa
Matomumas 10 km arba daugiau
nėra debesų žemiau 1500 m ir nėra kamuolinių lietaus debesų

METAR: SPYL 221600Z 20015KT CAVOK 25/13 Q1016 RMK BIRD HAZARD RWY 17/35 PP000

Laikas: 11:46 (16:46 UTC)

Prognozė

Ataskaita buvo paskelbta 5 valandos ir 46 minutes, ne 11:00 UTC
Prognozė galioja nuo 22 metu 12 UTC su 23 metu 12 UTC
Vėjas 15 kt iš Pietų/Pietryčių
Matomumas 10 km arba daugiau
nėra debesų žemiau 1500 m ir nėra kamuolinių lietaus debesų
Tapsmas
nuo 22 metu 18 UTC su 22 metu 20 UTC
Vėjas 10 kt iš Pietų/Pietvakarių

TAF: SPYL 221100Z 2212/2312 15015KT CAVOK TX28/2219Z TN19/2311Z BECMG 2218/2220 21010KT

Orai ataskaitas ir orų prognozės (METAR, TAF).

turimą stotys yra geltonos ir raudonos taškus žemėlapyje.

Perkelti pele per norėdami pamatyti stoties vardą.

Tada spustelėkite, norėdami matyti oro stebėjimo ir prognozės.

Norėdami pakeisti žemėlapį: spustelėkite ant žalios mygtukų su juodo kryžiaus žemyn,; žalią mygtuką su brūkšneliu, jei norite nutolinti; arba žalių rodyklių gretimoms žemėlapius.


METAR-TAF: